Time;durP1;ratioP1;P1;durP2;ratioP2;P2;SDS_P1;SDS_P2;PMS_P1;PMS_P2;Temp;Humidity;BMP_temperature;BMP_pressure;BME280_temperature;BME280_humidity;BME280_pressure;Samples;Min_cycle;Max_cycle;Signal;HPM_P1;HPM_P2
2023/11/12 00:00:15;;;;;;;4.43;0.73;;;7.00;1.00;;;;;;5032395;28;20399;-71
2023/11/12 00:02:40;;;;;;;5.20;1.17;;;7.10;1.00;;;;;;5032435;28;20393;-69
2023/11/12 00:05:08;;;;;;;4.70;0.80;;;7.10;1.00;;;;;;5032148;28;20399;-70
2023/11/12 00:07:33;;;;;;;4.95;1.05;;;7.10;1.00;;;;;;5026810;28;20435;-69
2023/11/12 00:09:59;;;;;;;6.73;1.13;;;7.20;1.00;;;;;;5011866;28;20863;-70
2023/11/12 00:12:27;;;;;;;4.80;1.15;;;7.10;1.00;;;;;;5011545;28;20427;-70
2023/11/12 00:14:52;;;;;;;4.55;0.93;;;7.00;1.00;;;;;;5011851;28;20399;-70
2023/11/12 00:17:18;;;;;;;4.40;1.20;;;7.00;1.00;;;;;;5011667;28;20389;-70
2023/11/12 00:19:43;;;;;;;6.50;1.00;;;7.10;1.00;;;;;;5012077;28;20401;-70
2023/11/12 00:22:09;;;;;;;9.50;1.52;;;7.10;1.00;;;;;;5012324;28;20385;-70
2023/11/12 00:24:35;;;;;;;5.30;1.20;;;7.10;1.00;;;;;;5023984;28;20893;-71
2023/11/12 00:27:00;;;;;;;5.07;1.02;;;7.20;1.00;;;;;;5031211;28;20419;-70
2023/11/12 00:29:26;;;;;;;7.60;1.43;;;7.20;1.00;;;;;;5031195;28;20427;-70
2023/11/12 00:31:51;;;;;;;5.20;1.00;;;7.30;1.00;;;;;;5031154;28;20405;-70
2023/11/12 00:34:17;;;;;;;4.40;0.90;;;7.30;1.00;;;;;;5029860;28;20434;-70
2023/11/12 00:36:43;;;;;;;5.10;1.48;;;7.30;1.00;;;;;;5031325;28;20618;-70
2023/11/12 00:39:09;;;;;;;6.67;1.10;;;7.30;1.00;;;;;;5031144;28;20391;-70
2023/11/12 00:41:37;;;;;;;4.70;1.10;;;7.40;1.00;;;;;;5030623;28;20399;-71
2023/11/12 00:44:03;;;;;;;4.38;0.90;;;7.40;1.00;;;;;;5029950;28;20416;-70
2023/11/12 00:46:29;;;;;;;5.30;1.10;;;7.30;1.00;;;;;;5031275;28;20390;-70
2023/11/12 00:48:56;;;;;;;5.17;0.70;;;7.30;1.00;;;;;;5030440;28;20797;-70
2023/11/12 00:51:21;;;;;;;5.35;1.13;;;7.30;1.00;;;;;;5030851;28;20392;-70
2023/11/12 00:53:47;;;;;;;4.22;0.80;;;7.40;1.00;;;;;;5030997;28;20398;-70
2023/11/12 00:56:13;;;;;;;4.17;0.70;;;7.30;1.00;;;;;;5025950;28;20399;-70
2023/11/12 00:58:39;;;;;;;3.97;0.68;;;7.20;1.00;;;;;;5031120;28;20407;-70
2023/11/12 01:01:05;;;;;;;4.10;0.60;;;7.20;1.00;;;;;;5030511;28;20390;-70
2023/11/12 01:03:32;;;;;;;4.35;0.82;;;7.20;1.00;;;;;;5029127;28;21031;-70
2023/11/12 01:05:59;;;;;;;4.10;0.60;;;7.20;1.00;;;;;;5029677;28;20725;-71
2023/11/12 01:08:24;;;;;;;5.20;1.00;;;7.30;1.00;;;;;;5018919;28;20416;-70
2023/11/12 01:10:54;;;;;;;4.25;0.80;;;7.30;1.00;;;;;;5012722;28;20414;-70
2023/11/12 01:13:19;;;;;;;4.68;1.00;;;7.30;1.00;;;;;;5030390;28;20792;-70
2023/11/12 01:15:45;;;;;;;5.47;1.30;;;7.40;1.00;;;;;;5030479;28;20403;-71
2023/11/12 01:18:11;;;;;;;4.88;1.10;;;7.30;1.00;;;;;;5030680;28;20503;-70
2023/11/12 01:20:37;;;;;;;5.05;1.20;;;7.20;1.00;;;;;;5030127;28;20849;-70
2023/11/12 01:23:02;;;;;;;4.50;0.53;;;7.30;1.00;;;;;;5029435;28;20494;-70
2023/11/12 01:25:28;;;;;;;4.20;0.50;;;7.30;1.00;;;;;;5029380;28;20409;-70
2023/11/12 01:27:54;;;;;;;4.00;0.70;;;7.10;1.00;;;;;;5030464;28;20469;-70
2023/11/12 01:30:20;;;;;;;4.67;0.90;;;7.10;1.00;;;;;;5030610;28;20390;-70
2023/11/12 01:32:45;;;;;;;4.65;1.13;;;7.00;1.00;;;;;;5030438;28;20403;-70
2023/11/12 01:35:11;;;;;;;4.20;0.90;;;7.00;1.00;;;;;;5030173;28;20399;-71
2023/11/12 01:37:36;;;;;;;4.53;0.70;;;7.00;1.00;;;;;;5029630;28;20419;-70
2023/11/12 01:40:04;;;;;;;4.60;0.77;;;7.10;1.00;;;;;;5029712;28;20403;-70
2023/11/12 01:42:30;;;;;;;6.85;1.10;;;7.10;1.00;;;;;;5029218;28;20867;-71
2023/11/12 01:44:55;;;;;;;4.47;1.00;;;7.20;1.00;;;;;;5028790;28;20434;-70
2023/11/12 01:47:21;;;;;;;3.90;0.60;;;7.20;1.00;;;;;;5029921;28;20415;-70
2023/11/12 01:49:47;;;;;;;4.60;1.10;;;7.10;1.00;;;;;;5022018;28;20454;-71
2023/11/12 01:52:16;;;;;;;5.00;1.20;;;7.10;1.00;;;;;;5010748;28;20397;-70
2023/11/12 01:54:43;;;;;;;5.00;0.73;;;7.10;1.00;;;;;;5029999;28;20401;-70
2023/11/12 01:57:08;;;;;;;4.10;0.70;;;7.10;1.00;;;;;;5029542;28;20410;-70
2023/11/12 01:59:35;;;;;;;4.10;0.80;;;7.00;1.00;;;;;;5020280;28;20794;-70
2023/11/12 02:02:02;;;;;;;3.85;0.52;;;7.10;1.00;;;;;;5022537;28;20406;-70
2023/11/12 02:04:28;;;;;;;3.80;0.60;;;7.00;1.00;;;;;;5028855;28;20397;-71
2023/11/12 02:06:54;;;;;;;4.20;0.70;;;7.00;1.00;;;;;;5029885;28;20510;-71
2023/11/12 02:09:22;;;;;;;6.47;0.80;;;6.90;1.00;;;;;;5029464;28;20407;-71
2023/11/12 02:11:49;;;;;;;4.43;0.70;;;6.90;1.00;;;;;;5029505;28;20877;-71
2023/11/12 02:14:16;;;;;;;9.05;0.95;;;6.90;1.00;;;;;;5029571;28;20387;-71
2023/11/12 02:16:43;;;;;;;4.13;0.80;;;6.90;1.00;;;;;;5023591;28;20436;-70
2023/11/12 02:19:28;;;;;;;3.90;0.55;;;6.90;1.00;;;;;;5009472;28;20403;-70
2023/11/12 02:21:55;;;;;;;4.47;0.63;;;6.90;1.00;;;;;;5024272;28;20519;-71
2023/11/12 02:24:21;;;;;;;4.50;0.90;;;6.90;1.00;;;;;;5029581;28;20380;-71
2023/11/12 02:26:47;;;;;;;4.90;1.10;;;7.00;1.00;;;;;;5029502;28;20403;-71
2023/11/12 02:29:13;;;;;;;3.90;0.73;;;7.00;1.00;;;;;;5029667;28;20434;-70
2023/11/12 02:31:39;;;;;;;6.45;0.88;;;7.10;1.00;;;;;;5029448;28;20545;-71
2023/11/12 02:34:06;;;;;;;4.00;0.57;;;7.10;1.00;;;;;;5029544;28;20873;-70
2023/11/12 02:36:34;;;;;;;4.50;0.90;;;7.20;1.00;;;;;;5029168;28;20383;-71
2023/11/12 02:39:00;;;;;;;4.15;0.70;;;7.20;1.00;;;;;;5029629;28;20467;-71
2023/11/12 02:41:25;;;;;;;4.15;0.47;;;7.20;1.00;;;;;;5028471;28;20456;-71
2023/11/12 02:43:52;;;;;;;4.20;0.80;;;7.20;1.00;;;;;;5028396;28;20407;-70
2023/11/12 02:46:17;;;;;;;6.40;1.30;;;7.10;1.00;;;;;;5029187;28;20398;-70
2023/11/12 02:49:29;;;;;;;4.80;0.75;;;7.10;1.00;;;;;;5029527;28;20442;-70
2023/11/12 02:51:54;;;;;;;4.10;0.65;;;7.10;1.00;;;;;;5019708;28;20414;-70
2023/11/12 02:54:20;;;;;;;4.50;0.60;;;7.00;1.00;;;;;;5018362;28;20437;-70
2023/11/12 02:56:46;;;;;;;4.70;0.70;;;6.90;99.90;;;;;;5019475;28;20484;-70
2023/11/12 02:59:11;;;;;;;5.13;0.82;;;6.90;1.00;;;;;;5016502;28;20395;-71
2023/11/12 03:01:37;;;;;;;4.07;0.63;;;7.00;1.00;;;;;;5030125;28;20939;-70
2023/11/12 03:04:03;;;;;;;4.30;0.60;;;6.90;1.00;;;;;;5012905;28;20513;-70
2023/11/12 03:06:29;;;;;;;4.40;0.70;;;6.90;1.00;;;;;;5025787;28;20965;-70
2023/11/12 03:08:54;;;;;;;4.23;0.53;;;6.80;1.00;;;;;;5032571;28;20419;-71
2023/11/12 03:11:20;;;;;;;4.20;0.60;;;6.80;1.00;;;;;;5024266;28;20411;-70
2023/11/12 03:13:46;;;;;;;4.10;0.60;;;6.70;1.00;;;;;;5023959;28;20769;-70
2023/11/12 03:16:13;;;;;;;4.30;0.70;;;6.60;1.00;;;;;;5032212;28;20919;-70
2023/11/12 03:18:39;;;;;;;3.80;0.30;;;6.60;1.00;;;;;;5013837;28;20838;-70
2023/11/12 03:21:04;;;;;;;4.10;0.80;;;6.70;99.90;;;;;;5017054;28;20414;-70
2023/11/12 03:23:30;;;;;;;4.90;1.00;;;6.70;99.90;;;;;;5019721;28;20415;-71
2023/11/12 03:25:56;;;;;;;4.40;0.90;;;6.70;99.90;;;;;;5032682;28;20400;-70
2023/11/12 03:28:21;;;;;;;5.20;0.87;;;6.60;99.90;;;;;;5031150;28;20418;-70
2023/11/12 03:30:47;;;;;;;4.30;0.80;;;6.30;1.00;;;;;;5031628;28;20395;-71
2023/11/12 03:33:12;;;;;;;4.20;0.60;;;6.20;99.90;;;;;;5027999;28;20392;-70
2023/11/12 03:35:37;;;;;;;4.30;0.90;;;6.00;99.90;;;;;;5017349;28;20425;-70
2023/11/12 03:38:03;;;;;;;4.50;0.90;;;6.00;1.00;;;;;;5026719;28;20437;-70
2023/11/12 03:40:29;;;;;;;5.23;0.90;;;5.90;1.00;;;;;;5030297;28;20496;-71
2023/11/12 03:42:55;;;;;;;4.40;0.88;;;5.90;1.00;;;;;;5031259;28;20387;-71
2023/11/12 03:45:20;;;;;;;4.17;0.60;;;5.90;1.00;;;;;;5021199;28;20829;-71
2023/11/12 03:47:46;;;;;;;7.50;1.00;;;5.80;1.00;;;;;;5021057;28;20455;-71
2023/11/12 03:50:12;;;;;;;3.90;0.60;;;5.70;1.00;;;;;;5025599;28;20805;-70
2023/11/12 03:52:37;;;;;;;4.53;0.90;;;5.70;1.00;;;;;;5025565;28;20407;-70
2023/11/12 03:55:05;;;;;;;4.10;0.80;;;5.60;1.00;;;;;;5030822;28;20422;-70
2023/11/12 03:57:31;;;;;;;4.70;1.10;;;5.50;1.00;;;;;;5029068;28;20461;-70
2023/11/12 03:59:57;;;;;;;5.90;0.70;;;5.30;1.00;;;;;;5028815;28;20503;-70
2023/11/12 04:02:23;;;;;;;4.30;0.70;;;5.20;1.00;;;;;;5030254;28;20403;-71
2023/11/12 04:04:48;;;;;;;4.00;0.50;;;5.40;1.00;;;;;;5030779;28;20398;-70
2023/11/12 04:07:15;;;;;;;4.10;0.70;;;5.50;1.00;;;;;;5030314;28;20387;-71
2023/11/12 04:09:41;;;;;;;4.00;0.80;;;5.40;1.00;;;;;;5031217;28;20415;-70
2023/11/12 04:12:07;;;;;;;3.75;0.47;;;5.40;1.00;;;;;;5031349;28;20416;-70
2023/11/12 04:14:33;;;;;;;5.80;0.80;;;5.40;1.00;;;;;;5029895;28;20403;-70
2023/11/12 04:16:59;;;;;;;4.10;0.60;;;5.20;1.00;;;;;;5030042;28;20758;-71
2023/11/12 04:19:24;;;;;;;3.70;0.40;;;5.30;1.00;;;;;;5029801;28;20441;-70
2023/11/12 04:21:50;;;;;;;3.90;0.50;;;5.40;1.00;;;;;;5030526;28;20476;-71
2023/11/12 04:24:16;;;;;;;10.10;0.80;;;5.50;1.00;;;;;;5030478;28;20437;-71
2023/11/12 04:26:42;;;;;;;4.20;0.80;;;5.60;1.00;;;;;;5031029;28;20391;-70
2023/11/12 04:29:07;;;;;;;5.30;1.10;;;5.50;1.00;;;;;;5029281;28;20454;-70
2023/11/12 04:31:35;;;;;;;3.97;0.75;;;5.40;1.00;;;;;;5029746;28;20414;-71
2023/11/12 04:34:00;;;;;;;4.22;0.85;;;5.40;1.00;;;;;;5030387;28;20889;-69
2023/11/12 04:36:27;;;;;;;3.97;0.60;;;5.40;1.00;;;;;;5026398;28;20414;-69
2023/11/12 04:38:53;;;;;;;5.20;1.20;;;5.30;1.00;;;;;;5028211;28;20760;-69
2023/11/12 04:41:19;;;;;;;4.20;0.63;;;5.30;1.00;;;;;;5030443;28;20403;-69
2023/11/12 04:43:44;;;;;;;4.00;0.70;;;5.30;1.00;;;;;;5030369;28;20435;-70
2023/11/12 04:46:11;;;;;;;4.00;0.60;;;5.40;1.00;;;;;;5030760;28;20399;-70
2023/11/12 04:48:39;;;;;;;4.00;0.70;;;5.60;1.00;;;;;;5030188;28;20453;-69
2023/11/12 04:51:08;;;;;;;4.50;0.90;;;5.60;1.00;;;;;;5029674;28;20534;-69
2023/11/12 04:53:33;;;;;;;4.43;1.00;;;5.70;1.00;;;;;;5024666;28;20401;-69
2023/11/12 04:55:59;;;;;;;4.43;0.80;;;5.60;1.00;;;;;;5024221;28;20897;-70
2023/11/12 04:58:24;;;;;;;4.10;0.80;;;5.60;1.00;;;;;;5028916;28;20894;-69
2023/11/12 05:00:52;;;;;;;4.90;0.70;;;5.60;1.00;;;;;;5029691;28;20410;-70
2023/11/12 05:03:19;;;;;;;4.72;1.00;;;5.60;1.00;;;;;;5029288;28;20541;-69
2023/11/12 05:05:45;;;;;;;4.30;0.90;;;5.60;1.00;;;;;;5029910;28;20464;-69
2023/11/12 05:08:11;;;;;;;4.03;0.80;;;5.60;1.00;;;;;;5030304;28;20525;-69
2023/11/12 05:10:36;;;;;;;3.80;0.50;;;5.50;1.00;;;;;;5019939;28;20389;-70
2023/11/12 05:13:02;;;;;;;4.55;0.95;;;5.40;1.00;;;;;;5010045;28;20415;-69
2023/11/12 05:15:27;;;;;;;4.20;0.70;;;5.40;1.00;;;;;;5026335;28;20411;-70
2023/11/12 05:17:53;;;;;;;5.20;0.63;;;5.30;1.00;;;;;;5028737;28;20461;-70
2023/11/12 05:20:19;;;;;;;4.47;0.90;;;5.20;1.00;;;;;;5029695;28;20407;-70
2023/11/12 05:22:44;;;;;;;4.70;0.90;;;5.20;1.00;;;;;;5029232;28;20727;-71
2023/11/12 05:25:13;;;;;;;4.70;1.50;;;5.20;1.00;;;;;;5030280;28;20417;-71
2023/11/12 05:27:38;;;;;;;6.10;1.30;;;5.20;1.00;;;;;;5029871;28;20514;-71
2023/11/12 05:30:05;;;;;;;5.28;1.48;;;5.10;1.00;;;;;;5029295;28;20414;-72
2023/11/12 05:32:31;;;;;;;4.32;1.10;;;5.10;1.00;;;;;;5030174;28;20800;-71
2023/11/12 05:34:56;;;;;;;4.20;0.80;;;5.10;1.00;;;;;;5029999;28;20493;-71
2023/11/12 05:37:22;;;;;;;5.55;1.58;;;5.10;1.00;;;;;;5027752;28;20484;-70
2023/11/12 05:39:47;;;;;;;5.00;1.20;;;5.00;1.00;;;;;;5025424;28;20451;-71
2023/11/12 05:42:13;;;;;;;4.63;1.20;;;5.00;1.00;;;;;;5030241;28;20398;-70
2023/11/12 05:44:38;;;;;;;5.20;1.25;;;5.00;1.00;;;;;;5029634;28;20427;-71
2023/11/12 05:47:04;;;;;;;5.13;1.40;;;4.90;1.00;;;;;;5029537;28;20873;-70
2023/11/12 05:49:30;;;;;;;5.30;1.75;;;5.00;1.00;;;;;;5029312;28;20407;-71
2023/11/12 05:51:56;;;;;;;5.40;1.30;;;5.10;1.00;;;;;;5029447;28;20422;-71
2023/11/12 05:54:21;;;;;;;4.80;1.07;;;5.00;1.00;;;;;;5029094;28;20427;-71
2023/11/12 05:56:47;;;;;;;7.63;1.70;;;5.00;1.00;;;;;;5029269;28;20398;-70
2023/11/12 05:59:12;;;;;;;8.37;1.87;;;5.00;1.00;;;;;;5029739;28;20486;-71
2023/11/12 06:01:38;;;;;;;5.33;1.37;;;5.00;1.00;;;;;;5028042;28;20889;-70
2023/11/12 06:04:04;;;;;;;4.50;0.90;;;5.00;1.00;;;;;;5023115;28;20858;-70
2023/11/12 06:06:29;;;;;;;6.60;1.30;;;5.00;1.00;;;;;;5010586;28;20393;-70
2023/11/12 06:08:55;;;;;;;4.55;1.23;;;5.00;1.00;;;;;;5014989;28;20763;-70
2023/11/12 06:11:21;;;;;;;4.60;1.00;;;5.00;1.00;;;;;;5024819;28;20410;-70
2023/11/12 06:13:46;;;;;;;5.13;1.25;;;5.00;1.00;;;;;;5011219;28;20482;-71
2023/11/12 06:16:12;;;;;;;5.63;1.10;;;5.10;1.00;;;;;;5029610;28;20402;-70
2023/11/12 06:18:37;;;;;;;4.40;1.20;;;5.20;1.00;;;;;;5029108;28;20905;-70
2023/11/12 06:21:03;;;;;;;6.03;1.40;;;5.10;1.00;;;;;;5029474;28;20403;-70
2023/11/12 06:23:29;;;;;;;5.63;1.10;;;5.10;1.00;;;;;;5029114;28;20735;-70
2023/11/12 06:25:55;;;;;;;4.97;1.17;;;5.10;1.00;;;;;;5029417;28;20398;-70
2023/11/12 06:28:22;;;;;;;5.20;1.10;;;5.10;1.00;;;;;;5029795;28;20749;-70
2023/11/12 06:30:48;;;;;;;5.10;1.30;;;5.10;1.00;;;;;;5024012;28;20423;-70
2023/11/12 06:33:14;;;;;;;4.78;1.35;;;5.20;1.00;;;;;;5029295;28;20429;-70
2023/11/12 06:35:40;;;;;;;6.33;0.90;;;5.20;1.00;;;;;;5018512;28;20885;-70
2023/11/12 06:38:05;;;;;;;4.88;1.13;;;5.20;1.00;;;;;;5027748;28;20406;-70
2023/11/12 06:40:31;;;;;;;4.77;1.13;;;5.30;1.00;;;;;;5030360;28;20746;-70
2023/11/12 06:42:56;;;;;;;4.90;1.50;;;5.30;1.00;;;;;;5028946;28;20387;-70
2023/11/12 06:45:22;;;;;;;5.13;1.20;;;5.30;1.00;;;;;;5024842;28;20600;-70
2023/11/12 06:47:47;;;;;;;4.40;0.80;;;5.30;1.00;;;;;;5021757;28;20418;-71
2023/11/12 06:50:13;;;;;;;4.60;1.37;;;5.30;1.00;;;;;;5023554;28;20389;-70
2023/11/12 06:52:39;;;;;;;4.97;1.03;;;5.20;1.00;;;;;;5019800;28;20405;-70
2023/11/12 06:55:05;;;;;;;4.30;0.80;;;5.20;1.00;;;;;;5028844;28;20464;-71
2023/11/12 06:57:31;;;;;;;4.43;1.17;;;5.20;1.00;;;;;;5023016;28;20404;-70
2023/11/12 06:59:57;;;;;;;4.50;1.10;;;5.20;1.00;;;;;;5019705;28;20394;-70
2023/11/12 07:02:22;;;;;;;5.53;1.20;;;5.20;1.00;;;;;;5029642;28;20406;-71
2023/11/12 07:04:48;;;;;;;5.10;1.40;;;5.30;1.00;;;;;;5028116;28;20755;-71
2023/11/12 07:07:14;;;;;;;5.47;1.20;;;5.40;1.00;;;;;;5017180;28;20422;-70
2023/11/12 07:09:39;;;;;;;4.93;1.10;;;5.50;1.00;;;;;;5018927;28;20530;-71
2023/11/12 07:12:06;;;;;;;6.13;1.73;;;5.60;1.00;;;;;;5025640;28;20403;-71
2023/11/12 07:14:32;;;;;;;4.72;1.30;;;5.60;1.00;;;;;;5028182;28;20387;-71
2023/11/12 07:16:57;;;;;;;5.45;1.60;;;5.80;1.00;;;;;;5029492;28;20403;-70
2023/11/12 07:19:24;;;;;;;5.40;1.53;;;6.00;1.00;;;;;;5015363;28;20415;-70
2023/11/12 07:21:50;;;;;;;4.47;1.08;;;6.10;1.00;;;;;;5024636;28;20854;-70
2023/11/12 07:24:17;;;;;;;5.60;1.45;;;6.20;1.00;;;;;;5026387;28;20438;-71
2023/11/12 07:26:44;;;;;;;7.85;1.50;;;6.00;1.00;;;;;;5031187;28;20418;-69
2023/11/12 07:29:13;;;;;;;6.45;1.30;;;6.10;1.00;;;;;;5019329;28;20427;-70
2023/11/12 07:31:39;;;;;;;4.90;1.13;;;6.10;1.00;;;;;;5026246;28;20728;-70
2023/11/12 07:34:06;;;;;;;7.05;1.50;;;6.20;1.00;;;;;;5026525;28;20411;-70
2023/11/12 07:36:32;;;;;;;14.98;4.72;;;6.30;1.00;;;;;;5030224;28;20439;-69
2023/11/12 07:38:57;;;;;;;7.20;3.60;;;6.40;1.00;;;;;;5031102;28;20403;-70
2023/11/12 07:41:23;;;;;;;12.82;4.93;;;6.50;1.00;;;;;;5022804;28;20519;-70
2023/11/12 07:43:49;;;;;;;7.60;2.67;;;6.50;1.00;;;;;;5023158;28;20417;-70
2023/11/12 07:46:14;;;;;;;6.30;2.22;;;6.60;1.00;;;;;;5028638;28;20449;-71
2023/11/12 07:48:40;;;;;;;8.32;2.65;;;6.60;1.00;;;;;;5017422;28;20420;-69
2023/11/12 07:51:07;;;;;;;5.33;1.67;;;6.50;1.00;;;;;;5018772;28;20487;-70
2023/11/12 07:53:33;;;;;;;5.78;1.80;;;6.40;1.00;;;;;;5016990;28;20379;-69
2023/11/12 07:55:58;;;;;;;8.50;2.97;;;6.40;1.00;;;;;;5024253;28;20929;-70
2023/11/12 07:58:24;;;;;;;7.13;2.30;;;6.50;1.00;;;;;;5021693;28;20424;-71
2023/11/12 08:00:49;;;;;;;9.37;2.57;;;6.60;1.00;;;;;;5017055;28;20436;-71
2023/11/12 08:03:15;;;;;;;7.43;1.88;;;6.60;1.00;;;;;;5027749;28;20398;-71
2023/11/12 08:05:40;;;;;;;6.53;2.50;;;6.50;1.00;;;;;;5013903;28;20412;-71
2023/11/12 08:08:06;;;;;;;6.13;2.10;;;6.50;1.00;;;;;;5029810;28;20518;-71
2023/11/12 08:10:31;;;;;;;5.47;2.08;;;6.50;1.00;;;;;;5018989;28;20381;-72
2023/11/12 08:12:58;;;;;;;7.67;2.60;;;6.60;1.00;;;;;;5011724;28;20812;-72
2023/11/12 08:15:23;;;;;;;10.03;3.20;;;6.70;1.00;;;;;;5029258;28;20390;-71
2023/11/12 08:17:49;;;;;;;6.97;2.60;;;6.70;1.00;;;;;;5026507;28;21289;-71
2023/11/12 08:20:15;;;;;;;6.40;2.30;;;6.70;1.00;;;;;;5020263;28;20426;-72
2023/11/12 08:22:41;;;;;;;5.80;2.47;;;6.60;1.00;;;;;;5025229;28;20387;-71
2023/11/12 08:25:09;;;;;;;8.18;2.38;;;6.60;1.00;;;;;;5028158;28;20410;-70
2023/11/12 08:27:35;;;;;;;6.60;2.40;;;6.60;1.00;;;;;;5025431;28;20520;-70
2023/11/12 08:30:00;;;;;;;7.80;2.30;;;6.60;1.00;;;;;;5010824;28;20808;-70
2023/11/12 08:32:26;;;;;;;6.63;3.17;;;6.70;1.00;;;;;;5022147;28;20452;-70
2023/11/12 08:34:51;;;;;;;5.90;2.20;;;6.70;1.00;;;;;;5011087;28;20917;-70
2023/11/12 08:37:17;;;;;;;6.07;2.20;;;6.90;1.00;;;;;;5022173;28;20412;-71
2023/11/12 08:39:43;;;;;;;6.00;2.10;;;7.00;1.00;;;;;;5024833;28;20383;-71
2023/11/12 08:42:08;;;;;;;5.80;1.70;;;7.00;1.00;;;;;;5020284;28;20412;-71
2023/11/12 08:44:34;;;;;;;8.00;2.77;;;7.00;1.00;;;;;;5015693;28;20415;-71
2023/11/12 08:47:00;;;;;;;7.30;1.98;;;7.40;1.00;;;;;;5013144;28;20484;-70
2023/11/12 08:49:30;;;;;;;5.40;1.50;;;7.70;1.00;;;;;;5027976;28;20468;-70
2023/11/12 08:51:56;;;;;;;5.50;1.75;;;8.00;99.90;;;;;;5017614;28;20398;-68
2023/11/12 08:54:23;;;;;;;7.80;2.40;;;8.40;99.90;;;;;;5018027;28;22497;-68
2023/11/12 08:56:49;;;;;;;5.75;1.70;;;8.90;99.90;;;;;;5014393;28;20407;-68
2023/11/12 08:59:15;;;;;;;9.13;2.30;;;9.80;99.90;;;;;;5011930;28;20412;-70
2023/11/12 09:01:41;;;;;;;6.00;2.00;;;10.90;99.90;;;;;;5025051;28;20409;-70
2023/11/12 09:04:07;;;;;;;6.30;2.00;;;11.70;99.90;;;;;;5019549;28;20485;-71
2023/11/12 09:06:32;;;;;;;6.00;1.80;;;11.70;99.90;;;;;;5022652;28;20516;-71
2023/11/12 09:08:58;;;;;;;5.83;1.63;;;11.80;99.90;;;;;;5014367;28;20463;-71
2023/11/12 09:11:23;;;;;;;6.47;1.60;;;11.90;99.90;;;;;;5025344;28;20544;-70
2023/11/12 09:13:49;;;;;;;5.75;1.73;;;11.50;99.90;;;;;;5016377;28;20453;-70
2023/11/12 09:16:15;;;;;;;5.50;1.30;;;11.50;99.90;;;;;;5019364;28;20875;-70
2023/11/12 09:18:41;;;;;;;5.60;1.35;;;11.60;99.90;;;;;;5012685;28;20512;-71
2023/11/12 09:21:07;;;;;;;5.30;1.50;;;11.60;99.90;;;;;;5024868;28;20494;-70
2023/11/12 09:23:32;;;;;;;6.38;1.67;;;11.80;99.90;;;;;;5024049;28;20419;-71
2023/11/12 09:25:59;;;;;;;5.70;1.40;;;11.70;99.90;;;;;;5026766;28;20936;-71
2023/11/12 09:28:24;;;;;;;6.65;1.27;;;11.50;99.90;;;;;;5019046;28;20895;-71
2023/11/12 09:30:50;;;;;;;5.57;1.27;;;11.50;99.90;;;;;;5024182;28;20407;-71
2023/11/12 09:33:15;;;;;;;6.43;1.70;;;11.60;99.90;;;;;;5027408;28;20553;-71
2023/11/12 09:35:41;;;;;;;6.00;1.57;;;11.40;99.90;;;;;;5023812;28;20407;-70
2023/11/12 09:38:07;;;;;;;5.88;1.50;;;11.50;99.90;;;;;;5021152;28;20400;-70
2023/11/12 09:40:33;;;;;;;10.03;1.67;;;11.60;99.90;;;;;;5022088;28;20390;-71
2023/11/12 09:42:58;;;;;;;7.18;1.80;;;11.80;99.90;;;;;;5026798;28;20414;-71
2023/11/12 09:45:25;;;;;;;5.83;1.90;;;11.80;99.90;;;;;;5012902;28;20398;-71
2023/11/12 09:47:54;;;;;;;6.35;2.00;;;11.80;99.90;;;;;;5022896;28;20455;-71
2023/11/12 09:50:24;;;;;;;5.50;1.20;;;11.70;99.90;;;;;;5018183;28;20407;-71
2023/11/12 09:52:51;;;;;;;5.88;1.40;;;11.70;99.90;;;;;;5015054;28;20396;-71
2023/11/12 09:55:19;;;;;;;5.35;1.50;;;11.30;99.90;;;;;;5025681;28;20379;-70
2023/11/12 09:57:46;;;;;;;6.00;1.40;;;10.80;99.90;;;;;;5015156;28;20400;-69
2023/11/12 10:00:12;;;;;;;7.22;1.80;;;10.50;99.90;;;;;;5020545;28;20424;-69
2023/11/12 10:02:40;;;;;;;9.30;2.50;;;10.40;99.90;;;;;;5021614;28;20395;-68
2023/11/12 10:05:13;;;;;;;5.70;1.63;;;10.10;99.90;;;;;;5012991;28;20389;-69
2023/11/12 10:07:40;;;;;;;4.90;1.30;;;10.30;99.90;;;;;;5028327;28;20420;-69
2023/11/12 10:10:22;;;;;;;8.07;1.95;;;10.20;99.90;;;;;;5021871;28;20825;-69
2023/11/12 10:12:48;;;;;;;9.27;2.42;;;10.00;99.90;;;;;;5018940;28;20392;-69
2023/11/12 10:15:14;;;;;;;7.72;1.90;;;9.90;99.90;;;;;;5030168;28;20446;-69
2023/11/12 10:17:47;;;;;;;8.60;2.10;;;9.80;99.90;;;;;;5028500;28;20416;-69
2023/11/12 10:20:23;;;;;;;5.47;1.55;;;9.70;99.90;;;;;;5022875;28;20410;-69
2023/11/12 10:22:50;;;;;;;4.90;1.63;;;9.60;99.90;;;;;;5018392;28;20413;-69
2023/11/12 10:25:42;;;;;;;5.80;2.50;;;9.30;99.90;;;;;;5027773;28;20497;-69
2023/11/12 10:28:09;;;;;;;6.57;1.80;;;9.20;99.90;;;;;;5021699;28;20418;-69
2023/11/12 10:30:37;;;;;;;9.57;1.90;;;9.50;99.90;;;;;;5021783;28;20396;-69
2023/11/12 10:33:26;;;;;;;7.50;1.67;;;9.50;99.90;;;;;;5029113;28;20522;-69
2023/11/12 10:35:54;;;;;;;6.27;1.70;;;9.50;99.90;;;;;;5026643;28;20396;-69
2023/11/12 10:38:20;;;;;;;9.40;1.70;;;9.40;99.90;;;;;;5021804;28;20482;-69
2023/11/12 10:41:03;;;;;;;5.50;1.70;;;9.50;99.90;;;;;;5028352;28;20411;-70
2023/11/12 10:43:33;;;;;;;5.90;1.60;;;9.70;99.90;;;;;;5023048;28;20472;-69
2023/11/12 10:46:03;;;;;;;6.47;2.05;;;9.60;99.90;;;;;;5013922;28;20759;-69
2023/11/12 10:48:35;;;;;;;6.85;2.40;;;9.40;99.90;;;;;;5030081;28;20454;-68
2023/11/12 10:51:10;;;;;;;5.72;1.85;;;9.40;99.90;;;;;;5028325;28;20402;-68
2023/11/12 10:53:38;;;;;;;5.13;1.58;;;9.30;99.90;;;;;;5023981;28;20412;-70
2023/11/12 10:56:05;;;;;;;6.22;2.10;;;9.20;99.90;;;;;;5023006;28;20493;-69
2023/11/12 10:58:32;;;;;;;6.05;1.70;;;9.30;99.90;;;;;;5027807;28;20418;-68
2023/11/12 11:01:03;;;;;;;7.60;2.20;;;9.20;99.90;;;;;;5031074;28;20411;-68
2023/11/12 11:03:30;;;;;;;6.43;1.70;;;9.30;99.90;;;;;;5026343;28;20407;-70
2023/11/12 11:05:59;;;;;;;6.20;2.22;;;9.20;99.90;;;;;;5021178;28;20391;-68
2023/11/12 11:08:26;;;;;;;5.30;1.50;;;9.30;99.90;;;;;;5030312;28;20431;-70
2023/11/12 11:10:52;;;;;;;7.15;1.63;;;9.50;99.90;;;;;;5029548;28;20747;-69
2023/11/12 11:13:18;;;;;;;5.45;1.60;;;9.50;99.90;;;;;;5030216;28;20421;-69
2023/11/12 11:15:47;;;;;;;5.00;1.43;;;9.60;99.90;;;;;;5025396;28;20405;-70
2023/11/12 11:18:38;;;;;;;6.53;1.02;;;9.70;99.90;;;;;;5017281;28;20937;-69
2023/11/12 11:21:06;;;;;;;4.50;1.00;;;9.70;99.90;;;;;;5018648;28;20414;-69
2023/11/12 11:23:53;;;;;;;4.30;0.70;;;9.60;99.90;;;;;;5021269;28;20941;-69
2023/11/12 11:26:27;;;;;;;4.80;1.00;;;9.60;99.90;;;;;;5021877;28;20748;-69
2023/11/12 11:29:05;;;;;;;4.50;0.80;;;9.70;99.90;;;;;;5021910;28;20478;-68
2023/11/12 11:31:35;;;;;;;4.57;0.90;;;9.60;99.90;;;;;;5023447;28;20408;-69
2023/11/12 11:34:03;;;;;;;5.88;1.10;;;9.60;99.90;;;;;;5021100;28;20400;-69
2023/11/12 11:36:32;;;;;;;5.28;1.20;;;9.40;99.90;;;;;;5011811;28;20783;-69
2023/11/12 11:39:08;;;;;;;4.90;1.10;;;9.40;99.90;;;;;;5029220;28;20447;-69
2023/11/12 11:41:46;;;;;;;6.13;1.20;;;9.50;99.90;;;;;;5017475;28;20419;-69
2023/11/12 11:44:37;;;;;;;4.90;0.80;;;9.50;99.90;;;;;;5011172;28;20752;-69
2023/11/12 11:47:24;;;;;;;4.63;0.85;;;9.40;99.90;;;;;;5024041;28;20496;-69
2023/11/12 11:49:58;;;;;;;5.43;1.52;;;9.50;99.90;;;;;;5028086;28;20441;-69
2023/11/12 11:52:26;;;;;;;6.30;1.30;;;9.50;99.90;;;;;;5018901;28;20407;-69
2023/11/12 11:54:54;;;;;;;6.10;0.90;;;9.50;99.90;;;;;;5025967;28;20489;-69
2023/11/12 11:57:24;;;;;;;4.93;0.93;;;9.60;99.90;;;;;;5014035;28;20405;-70
2023/11/12 11:59:50;;;;;;;5.32;1.30;;;9.60;99.90;;;;;;5022630;28;20760;-70
2023/11/12 12:02:16;;;;;;;4.57;0.80;;;9.60;99.90;;;;;;5020381;28;20418;-69
2023/11/12 12:04:51;;;;;;;7.40;0.80;;;9.70;99.90;;;;;;5018771;28;20907;-70
2023/11/12 12:07:22;;;;;;;4.60;0.70;;;9.90;99.90;;;;;;5025658;28;20472;-69
2023/11/12 12:09:49;;;;;;;5.50;0.80;;;9.70;99.90;;;;;;5015499;28;20399;-69
2023/11/12 12:12:15;;;;;;;5.43;1.10;;;9.70;99.90;;;;;;5026713;28;20411;-69
2023/11/12 12:14:41;;;;;;;7.00;1.25;;;9.80;99.90;;;;;;5020346;28;20409;-69
2023/11/12 12:17:07;;;;;;;4.72;0.90;;;9.80;99.90;;;;;;5024473;28;20746;-69
2023/11/12 12:19:33;;;;;;;4.80;1.00;;;9.80;99.90;;;;;;5026119;28;20435;-69
2023/11/12 12:21:59;;;;;;;4.80;1.10;;;9.60;99.90;;;;;;5023951;28;20502;-69
2023/11/12 12:24:25;;;;;;;5.17;0.90;;;9.60;99.90;;;;;;5023859;28;20499;-69
2023/11/12 12:26:52;;;;;;;4.67;0.90;;;9.70;99.90;;;;;;5024631;28;20425;-69
2023/11/12 12:29:22;;;;;;;5.57;1.10;;;9.80;99.90;;;;;;5023082;28;20433;-69
2023/11/12 12:31:48;;;;;;;5.30;1.03;;;9.80;99.90;;;;;;5024140;28;20415;-69
2023/11/12 12:34:19;;;;;;;7.00;2.10;;;9.70;99.90;;;;;;5027006;28;20770;-69
2023/11/12 12:37:09;;;;;;;5.63;1.50;;;9.80;99.90;;;;;;5019341;28;20442;-70
2023/11/12 12:39:48;;;;;;;5.53;1.30;;;9.90;99.90;;;;;;5018534;28;20408;-69
2023/11/12 12:42:14;;;;;;;6.10;1.37;;;10.00;99.90;;;;;;5018942;28;20960;-69
2023/11/12 12:44:46;;;;;;;5.25;1.30;;;10.10;99.90;;;;;;5012121;28;20421;-69
2023/11/12 12:47:13;;;;;;;5.38;1.50;;;10.10;99.90;;;;;;5026864;28;20418;-69
2023/11/12 12:49:39;;;;;;;7.35;1.70;;;10.00;99.90;;;;;;5027915;28;20427;-69
2023/11/12 12:52:20;;;;;;;6.40;2.03;;;10.10;99.90;;;;;;5021490;28;20471;-69
2023/11/12 12:54:46;;;;;;;5.75;1.40;;;10.10;99.90;;;;;;5012901;28;20917;-69
2023/11/12 12:57:12;;;;;;;6.27;1.73;;;10.10;99.90;;;;;;5016172;28;20417;-70
2023/11/12 12:59:37;;;;;;;5.85;1.60;;;10.00;99.90;;;;;;5018463;28;20558;-70
2023/11/12 13:02:03;;;;;;;7.17;1.73;;;10.00;99.90;;;;;;5027406;28;20472;-70